Sunflower Hakata — JL6711 — position and weather

sailwx.info

Track history (hours):
 
Tides and Currents Weather Stations Pressure Air Temp Water Temp Dewpoint Dewpoint Depression Visibility Wind Speed Wind Dir Waves Ship Positions

Sunflower Hakata

Last reported at 2015-Mar-28 15:11 UTC. Time now 2015-Mar-29 06:09 UTC.
Position N 34°55' E 139°24'.

Length 167 m; draft 6.5 m.

Type: Cargo ship. MMSI: 431501764.

Date/timePositionNaut miles runAvg speedWind from/ knotsBaromVisibWave heightAir tempDewpointWater temp
2015-Mar-28 15:11N 34°55' E 139°24'1320.2
2015-Mar-28 14:34N 35°02' E 139°37'1515.3
2015-Mar-28 13:34N 35°16' E 139°46'1212.4
2015-Mar-28 12:33N 35°28' E 139°49'9 9.0
2015-Mar-28 11:34N 35°37' E 139°48'0 0.0
2015-Mar-28 10:28N 35°37' E 139°48'0 0.0
2015-Mar-28 09:24N 35°37' E 139°48'0 0.0
2015-Mar-28 08:28N 35°37' E 139°48'0 0.0
2015-Mar-28 07:31N 35°37' E 139°48'0 0.0
2015-Mar-28 06:34N 35°37' E 139°48'0 0.0
2015-Mar-28 05:31N 35°37' E 139°48'0 0.0
2015-Mar-28 04:31N 35°37' E 139°48'0 0.0
2015-Mar-28 03:27N 35°37' E 139°48'0 0.0
2015-Mar-28 02:34N 35°37' E 139°48'0 0.0
2015-Mar-28 01:34N 35°37' E 139°48'0 0.0
2015-Mar-28 00:25N 35°37' E 139°48'0 0.0
2015-Mar-27 23:22N 35°37' E 139°48'0 0.0
2015-Mar-27 22:30N 35°37' E 139°48'0 0.0
2015-Mar-27 21:22N 35°37' E 139°48'0 0.0
2015-Mar-27 20:33N 35°37' E 139°48'5 5.5
2015-Mar-27 19:33N 35°33' E 139°52'1515.5
2015-Mar-27 18:34N 35°19' E 139°44'1615.8
2015-Mar-27 17:33N 35°03' E 139°42'8420.7
2015-Mar-27 13:30N 34°16' E 138°17'16518.4
2015-Mar-27 04:33N 34°02' E 134°59'2221.9
2015-Mar-27 03:33N 34°24' E 135°00'1212.6
2015-Mar-27 02:33N 34°36' E 134°55'20613.5
2015-Mar-26 11:19N 34°02' E 130°49'1822.2
2015-Mar-26 10:31N 33°58' E 130°28'2020.5
2015-Mar-26 09:33N 33°40' E 130°16'7 7.0
2015-Mar-26 08:32N 33°38' E 130°24'0 0.0
2015-Mar-26 07:08N 33°38' E 130°24'0 0.0
2015-Mar-26 06:17N 33°38' E 130°24'0 0.0
2015-Mar-26 05:32N 33°38' E 130°24'0 0.0
2015-Mar-26 04:29N 33°38' E 130°24'0 0.0
2015-Mar-26 03:32N 33°38' E 130°24'0 0.0
2015-Mar-26 02:32N 33°38' E 130°24'0 0.0
2015-Mar-26 01:29N 33°38' E 130°24'0 0.0
2015-Mar-26 00:32N 33°38' E 130°24'0 0.0
2015-Mar-25 23:32N 33°38' E 130°24'0 0.0
2015-Mar-25 22:32N 33°38' E 130°24'0 0.0
2015-Mar-25 21:29N 33°38' E 130°24'0 0.0
2015-Mar-25 20:33N 33°38' E 130°24'10 9.5
2015-Mar-25 19:32N 33°44' E 130°16'2517.6
2015-Mar-25 18:08N 34°02' E 130°37'1118.8
2015-Mar-25 17:31N 34°02' E 130°50'38215.9
2015-Mar-24 17:31N 34°29' E 138°32'5919.9
2015-Mar-24 14:33N 35°00' E 139°33'1818.3
2015-Mar-24 13:33N 35°15' E 139°46'1414.5
2015-Mar-24 12:34N 35°29' E 139°50'8 8.4
2015-Mar-24 11:33N 35°37' E 139°48'0 0.0
2015-Mar-24 10:33N 35°37' E 139°48'0 0.0
2015-Mar-24 09:27N 35°37' E 139°48'0 0.0
2015-Mar-24 08:18N 35°37' E 139°48'0 0.0
2015-Mar-24 07:30N 35°37' E 139°48'0 0.0
2015-Mar-24 06:33N 35°37' E 139°48'0 0.0
2015-Mar-24 05:33N 35°37' E 139°48'0 0.0
2015-Mar-24 04:33N 35°37' E 139°48'9 9.4
2015-Mar-24 03:33N 35°34' E 139°59'6 6.0
2015-Mar-24 02:33N 35°36' E 140°06'0 0.0
2015-Mar-24 01:17N 35°36' E 140°06'0 0.0
2015-Mar-24 00:05N 35°36' E 140°06'0 0.0
2015-Mar-23 23:32N 35°36' E 140°06'0 0.0
2015-Mar-23 22:33N 35°36' E 140°06'5 5.1
2015-Mar-23 21:33N 35°34' E 140°00'0 0.1
2015-Mar-23 20:31N 35°34' E 139°60'0 0.0
2015-Mar-23 19:33N 35°34' E 139°60'0 0.0
2015-Mar-23 18:33N 35°34' E 139°60'0 0.0
2015-Mar-23 17:33N 35°34' E 139°60'0 0.1
2015-Mar-23 16:33N 35°34' E 139°60'0 0.1
2015-Mar-23 15:33N 35°34' E 139°60'1313.3
2015-Mar-23 14:34N 35°25' E 139°47'1211.9
2015-Mar-23 13:33N 35°13' E 139°47'2019.7
2015-Mar-23 12:33N 34°58' E 139°32'  
2015-Mar-20 20:33N 34°55' E 139°24'2121.1
2015-Mar-20 19:33N 35°08' E 139°43'1414.2
2015-Mar-20 18:33N 35°22' E 139°42'1615.5
2015-Mar-20 17:33N 35°37' E 139°48'2 0.1
2015-Mar-20 05:30N 35°36' E 139°50'1515.9
2015-Mar-20 04:34N 35°21' E 139°45'1414.4
2015-Mar-20 03:33N 35°07' E 139°44'24618.9
2015-Mar-19 14:34N 33°54' E 134°59'2423.3
2015-Mar-19 13:33N 34°17' E 134°58'2020.1
2015-Mar-19 12:33N 34°37' E 134°60'  
Track history (hours):
 
Tides and Currents Weather Stations Pressure Air Temp Water Temp Dewpoint Dewpoint Depression Visibility Wind Speed Wind Dir Waves Ship Positions

Sunflower Hakata

Last reported at 2015-Mar-28 15:11 UTC. Time now 2015-Mar-29 06:09 UTC.
Position N 34°55' E 139°24'.

Length 167 m; draft 6.5 m.

Type: Cargo ship. MMSI: 431501764.

Date/timePositionNaut miles runAvg speedWind from/ knotsBaromVisibWave heightAir tempDewpointWater temp
2015-Mar-28 15:11N 34°55' E 139°24'1320.2
2015-Mar-28 14:34N 35°02' E 139°37'1515.3
2015-Mar-28 13:34N 35°16' E 139°46'1212.4
2015-Mar-28 12:33N 35°28' E 139°49'9 9.0
2015-Mar-28 11:34N 35°37' E 139°48'0 0.0
2015-Mar-28 10:28N 35°37' E 139°48'0 0.0
2015-Mar-28 09:24N 35°37' E 139°48'0 0.0
2015-Mar-28 08:28N 35°37' E 139°48'0 0.0
2015-Mar-28 07:31N 35°37' E 139°48'0 0.0
2015-Mar-28 06:34N 35°37' E 139°48'0 0.0
2015-Mar-28 05:31N 35°37' E 139°48'0 0.0
2015-Mar-28 04:31N 35°37' E 139°48'0 0.0
2015-Mar-28 03:27N 35°37' E 139°48'0 0.0
2015-Mar-28 02:34N 35°37' E 139°48'0 0.0
2015-Mar-28 01:34N 35°37' E 139°48'0 0.0
2015-Mar-28 00:25N 35°37' E 139°48'0 0.0
2015-Mar-27 23:22N 35°37' E 139°48'0 0.0
2015-Mar-27 22:30N 35°37' E 139°48'0 0.0
2015-Mar-27 21:22N 35°37' E 139°48'0 0.0
2015-Mar-27 20:33N 35°37' E 139°48'5 5.5
2015-Mar-27 19:33N 35°33' E 139°52'1515.5
2015-Mar-27 18:34N 35°19' E 139°44'1615.8
2015-Mar-27 17:33N 35°03' E 139°42'8420.7
2015-Mar-27 13:30N 34°16' E 138°17'16518.4
2015-Mar-27 04:33N 34°02' E 134°59'2221.9
2015-Mar-27 03:33N 34°24' E 135°00'1212.6
2015-Mar-27 02:33N 34°36' E 134°55'20613.5
2015-Mar-26 11:19N 34°02' E 130°49'1822.2
2015-Mar-26 10:31N 33°58' E 130°28'2020.5
2015-Mar-26 09:33N 33°40' E 130°16'7 7.0
2015-Mar-26 08:32N 33°38' E 130°24'0 0.0
2015-Mar-26 07:08N 33°38' E 130°24'0 0.0
2015-Mar-26 06:17N 33°38' E 130°24'0 0.0
2015-Mar-26 05:32N 33°38' E 130°24'0 0.0
2015-Mar-26 04:29N 33°38' E 130°24'0 0.0
2015-Mar-26 03:32N 33°38' E 130°24'0 0.0
2015-Mar-26 02:32N 33°38' E 130°24'0 0.0
2015-Mar-26 01:29N 33°38' E 130°24'0 0.0
2015-Mar-26 00:32N 33°38' E 130°24'0 0.0
2015-Mar-25 23:32N 33°38' E 130°24'0 0.0
2015-Mar-25 22:32N 33°38' E 130°24'0 0.0
2015-Mar-25 21:29N 33°38' E 130°24'0 0.0
2015-Mar-25 20:33N 33°38' E 130°24'10 9.5
2015-Mar-25 19:32N 33°44' E 130°16'2517.6
2015-Mar-25 18:08N 34°02' E 130°37'1118.8
2015-Mar-25 17:31N 34°02' E 130°50'38215.9
2015-Mar-24 17:31N 34°29' E 138°32'5919.9
2015-Mar-24 14:33N 35°00' E 139°33'1818.3
2015-Mar-24 13:33N 35°15' E 139°46'1414.5
2015-Mar-24 12:34N 35°29' E 139°50'8 8.4
2015-Mar-24 11:33N 35°37' E 139°48'0 0.0
2015-Mar-24 10:33N 35°37' E 139°48'0 0.0
2015-Mar-24 09:27N 35°37' E 139°48'0 0.0
2015-Mar-24 08:18N 35°37' E 139°48'0 0.0
2015-Mar-24 07:30N 35°37' E 139°48'0 0.0
2015-Mar-24 06:33N 35°37' E 139°48'0 0.0
2015-Mar-24 05:33N 35°37' E 139°48'0 0.0
2015-Mar-24 04:33N 35°37' E 139°48'9 9.4
2015-Mar-24 03:33N 35°34' E 139°59'6 6.0
2015-Mar-24 02:33N 35°36' E 140°06'0 0.0
2015-Mar-24 01:17N 35°36' E 140°06'0 0.0
2015-Mar-24 00:05N 35°36' E 140°06'0 0.0
2015-Mar-23 23:32N 35°36' E 140°06'0 0.0
2015-Mar-23 22:33N 35°36' E 140°06'5 5.1
2015-Mar-23 21:33N 35°34' E 140°00'0 0.1
2015-Mar-23 20:31N 35°34' E 139°60'0 0.0
2015-Mar-23 19:33N 35°34' E 139°60'0 0.0
2015-Mar-23 18:33N 35°34' E 139°60'0 0.0
2015-Mar-23 17:33N 35°34' E 139°60'0 0.1
2015-Mar-23 16:33N 35°34' E 139°60'0 0.1
2015-Mar-23 15:33N 35°34' E 139°60'1313.3
2015-Mar-23 14:34N 35°25' E 139°47'1211.9
2015-Mar-23 13:33N 35°13' E 139°47'2019.7
2015-Mar-23 12:33N 34°58' E 139°32'  
2015-Mar-20 20:33N 34°55' E 139°24'2121.1
2015-Mar-20 19:33N 35°08' E 139°43'1414.2
2015-Mar-20 18:33N 35°22' E 139°42'1615.5
2015-Mar-20 17:33N 35°37' E 139°48'2 0.1
2015-Mar-20 05:30N 35°36' E 139°50'1515.9
2015-Mar-20 04:34N 35°21' E 139°45'1414.4
2015-Mar-20 03:33N 35°07' E 139°44'24618.9
2015-Mar-19 14:34N 33°54' E 134°59'2423.3
2015-Mar-19 13:33N 34°17' E 134°58'2020.1
2015-Mar-19 12:33N 34°37' E 134°60'  

Dump ship's entire track history